Yuedian 58 — BYFE — position and weather

sailwx.info

Track history (hours):
 
Tides and Currents Weather Stations Pressure Air Temp Water Temp Dewpoint Dewpoint Depression Visibility Wind Speed Wind Dir Waves Ship Positions

Yuedian 58

Last reported at 2014-Oct-20 03:33 UTC. Time now 2014-Oct-21 21:34 UTC.
Position N 38°22' E 121°25'.

Length 190 m; draft 7.1 m.

Type: Cargo ship. MMSI: 414008000.

Date/timePositionNaut miles runAvg speedWind from/ knotsBaromVisibWave heightAir tempDewpointWater temp
2014-Oct-20 03:33N 38°22' E 121°25'9313.2
2014-Oct-19 20:34N 37°21' E 122°53'1714.4
2014-Oct-19 19:23N 37°04' E 122°53'1214.4
2014-Oct-19 18:32N 36°52' E 122°53'34713.6
2014-Oct-18 17:05N 31°05' E 122°32'712.4
2014-Oct-18 16:33N 31°06' E 122°25'1714.0
2014-Oct-18 15:19N 31°14' E 122°06'1114.5
2014-Oct-18 14:33N 31°16' E 121°53'1313.0
2014-Oct-18 13:33N 31°21' E 121°39'9 8.8
2014-Oct-18 12:33N 31°25' E 121°31'6 6.4
2014-Oct-18 11:34N 31°30' E 121°25'1110.4
2014-Oct-18 10:33N 31°37' E 121°16'1312.7
2014-Oct-18 09:33N 31°45' E 121°05'1010.0
2014-Oct-18 08:33N 31°49' E 120°54'1212.3
2014-Oct-18 07:33N 32°00' E 120°48'1110.9
2014-Oct-18 06:33N 32°01' E 120°35'9 8.8
2014-Oct-18 05:33N 32°02' E 120°25'1211.9
2014-Oct-18 04:33N 31°56' E 120°13'1212.5
2014-Oct-18 03:34N 31°60' E 119°59'2013.8
2014-Oct-18 02:07N 32°18' E 119°50'15 9.4
2014-Oct-18 00:29N 32°14' E 119°33'1010.4
2014-Oct-17 23:31N 32°12' E 119°21'1 1.5
2014-Oct-17 22:33N 32°11' E 119°19'0 0.0
2014-Oct-17 21:33N 32°11' E 119°19'0 0.0
2014-Oct-17 20:27N 32°11' E 119°19'0 0.0
2014-Oct-17 19:30N 32°11' E 119°19'0 0.0
2014-Oct-17 18:24N 32°11' E 119°19'0 0.0
2014-Oct-16 20:30N 32°11' E 119°19'0 0.0
2014-Oct-16 18:15N 32°11' E 119°19'0 0.0
2014-Oct-16 15:33N 32°11' E 119°19'0 0.0
2014-Oct-16 13:15N 32°11' E 119°19'29 2.7
2014-Oct-16 02:29N 32°14' E 119°53'1111.7
2014-Oct-16 01:33N 32°04' E 119°56'1110.8
2014-Oct-16 00:33N 31°57' E 120°06'10 9.7
2014-Oct-15 23:33N 31°57' E 120°17'9 9.0
2014-Oct-15 22:33N 31°60' E 120°27'8 7.5
2014-Oct-15 21:33N 32°00' E 120°36'8 8.0
2014-Oct-15 20:33N 32°01' E 120°45'9 8.9
2014-Oct-15 19:34N 31°55' E 120°53'1 0.8
2014-Oct-15 18:33N 31°54' E 120°54'0 0.0
2014-Oct-15 17:33N 31°54' E 120°54'0 0.0
2014-Oct-15 16:24N 31°54' E 120°54'0 0.0
2014-Oct-15 15:30N 31°54' E 120°54'0 0.4
2014-Oct-15 14:33N 31°53' E 120°53'8 7.7
2014-Oct-15 13:33N 31°47' E 120°58'10 9.7
2014-Oct-15 12:33N 31°42' E 121°08'1110.8
2014-Oct-15 11:33N 31°35' E 121°18'1211.7
2014-Oct-15 10:33N 31°28' E 121°28'9 8.9
2014-Oct-15 09:33N 31°23' E 121°37'10 9.7
2014-Oct-15 08:32N 31°18' E 121°47'321 9.4
2014-Oct-13 22:16N 36°35' E 122°51'912.8
2014-Oct-13 21:33N 36°43' E 122°48'1313.2
2014-Oct-13 20:34N 36°57' E 122°48'1413.7
2014-Oct-13 19:33N 37°10' E 122°48'1413.7
2014-Oct-13 18:31N 37°25' E 122°48'1313.1
2014-Oct-13 17:31N 37°34' E 122°36'1312.9
2014-Oct-13 16:32N 37°42' E 122°23'1712.1
2014-Oct-13 15:08N 37°52' E 122°06'712.0
2014-Oct-13 14:33N 37°56' E 121°59'1211.9
2014-Oct-13 13:32N 38°03' E 121°47'142 9.2
2014-Oct-12 22:09N 39°46' E 119°42'610.3
2014-Oct-12 21:33N 39°52' E 119°39'3 3.2
2014-Oct-12 20:33N 39°54' E 119°36'0 0.0
2014-Oct-12 19:33N 39°54' E 119°36'0 0.0
2014-Oct-12 18:33N 39°54' E 119°36'0 0.0
2014-Oct-12 17:30N 39°54' E 119°36'0 0.0
2014-Oct-12 16:31N 39°54' E 119°36'0 0.0
2014-Oct-12 15:31N 39°54' E 119°36'0 0.0
2014-Oct-12 14:31N 39°54' E 119°36'0 0.0
2014-Oct-12 13:31N 39°54' E 119°36'0 0.0
2014-Oct-12 12:32N 39°54' E 119°36'0 0.0
2014-Oct-12 11:32N 39°54' E 119°36'0 0.0
2014-Oct-12 10:32N 39°54' E 119°36'0 0.0
2014-Oct-12 09:32N 39°54' E 119°36'0 0.0
2014-Oct-12 08:32N 39°54' E 119°36'0 0.0
2014-Oct-12 07:32N 39°54' E 119°36'0 0.0
2014-Oct-12 06:32N 39°54' E 119°36'0 0.0
2014-Oct-12 05:32N 39°54' E 119°36'0 0.0
2014-Oct-12 04:32N 39°54' E 119°36'0 0.0
2014-Oct-12 03:29N 39°54' E 119°36'0 0.0
2014-Oct-12 02:29N 39°54' E 119°36'0 0.0
2014-Oct-12 01:23N 39°54' E 119°36'0 0.0
2014-Oct-12 00:29N 39°54' E 119°36'0 0.0
2014-Oct-11 23:29N 39°54' E 119°36'0 0.0
2014-Oct-11 22:29N 39°54' E 119°36'0 0.0
2014-Oct-11 21:29N 39°54' E 119°36'0 0.0
2014-Oct-11 20:29N 39°54' E 119°36'0 0.0
2014-Oct-11 19:29N 39°54' E 119°36'0 0.0
2014-Oct-11 18:29N 39°54' E 119°36'0 0.0
2014-Oct-11 17:17N 39°54' E 119°36'0 0.0
2014-Oct-11 16:29N 39°54' E 119°36'0 0.0
2014-Oct-11 15:29N 39°54' E 119°36'0 0.0
2014-Oct-11 14:29N 39°54' E 119°36'0 0.0
2014-Oct-11 13:23N 39°54' E 119°36'0 0.0
2014-Oct-11 12:29N 39°54' E 119°36'0 0.0
2014-Oct-11 11:29N 39°54' E 119°36'0 0.0
2014-Oct-11 10:29N 39°54' E 119°36'0 0.0
2014-Oct-11 09:29N 39°54' E 119°36'0 0.0
2014-Oct-11 08:29N 39°54' E 119°36'0 0.0
2014-Oct-11 07:28N 39°54' E 119°36'0 0.0
2014-Oct-11 06:28N 39°54' E 119°36'0 0.0
2014-Oct-11 05:28N 39°54' E 119°36'0 0.0
2014-Oct-11 04:23N 39°54' E 119°36'0 0.0
2014-Oct-11 03:30N 39°54' E 119°36'0 0.0
2014-Oct-11 02:30N 39°54' E 119°36'0 0.0
2014-Oct-11 01:30N 39°54' E 119°36'0 0.0
2014-Oct-11 00:30N 39°54' E 119°36'0 0.0
2014-Oct-10 23:30N 39°54' E 119°36'0 0.0
2014-Oct-10 22:30N 39°54' E 119°36'0 0.0
2014-Oct-10 21:30N 39°54' E 119°36'0 0.0
2014-Oct-10 20:30N 39°54' E 119°36'0 0.0
2014-Oct-10 19:30N 39°54' E 119°36'0 0.0
2014-Oct-10 18:30N 39°54' E 119°36'0 0.0
2014-Oct-10 17:30N 39°54' E 119°36'0 0.0
2014-Oct-10 16:30N 39°54' E 119°36'0 0.0
2014-Oct-10 15:30N 39°54' E 119°36'0 0.0
2014-Oct-10 14:30N 39°54' E 119°36'0 0.0
2014-Oct-10 13:30N 39°54' E 119°36'0 0.0
2014-Oct-10 12:30N 39°54' E 119°36'0 0.0
2014-Oct-10 11:18N 39°54' E 119°36'0 0.0
2014-Oct-10 10:30N 39°54' E 119°36'0 0.0
2014-Oct-10 09:24N 39°54' E 119°36'0 0.0
2014-Oct-10 08:30N 39°54' E 119°36'0 0.0
2014-Oct-10 07:30N 39°54' E 119°36'0 0.0
2014-Oct-10 06:24N 39°54' E 119°36'0 0.0
2014-Oct-10 05:30N 39°54' E 119°36'0 0.0
2014-Oct-10 04:30N 39°54' E 119°36'  
Track history (hours):
 
Tides and Currents Weather Stations Pressure Air Temp Water Temp Dewpoint Dewpoint Depression Visibility Wind Speed Wind Dir Waves Ship Positions

Yuedian 58

Last reported at 2014-Oct-20 03:33 UTC. Time now 2014-Oct-21 21:34 UTC.
Position N 38°22' E 121°25'.

Length 190 m; draft 7.1 m.

Type: Cargo ship. MMSI: 414008000.

Date/timePositionNaut miles runAvg speedWind from/ knotsBaromVisibWave heightAir tempDewpointWater temp
2014-Oct-20 03:33N 38°22' E 121°25'9313.2
2014-Oct-19 20:34N 37°21' E 122°53'1714.4
2014-Oct-19 19:23N 37°04' E 122°53'1214.4
2014-Oct-19 18:32N 36°52' E 122°53'34713.6
2014-Oct-18 17:05N 31°05' E 122°32'712.4
2014-Oct-18 16:33N 31°06' E 122°25'1714.0
2014-Oct-18 15:19N 31°14' E 122°06'1114.5
2014-Oct-18 14:33N 31°16' E 121°53'1313.0
2014-Oct-18 13:33N 31°21' E 121°39'9 8.8
2014-Oct-18 12:33N 31°25' E 121°31'6 6.4
2014-Oct-18 11:34N 31°30' E 121°25'1110.4
2014-Oct-18 10:33N 31°37' E 121°16'1312.7
2014-Oct-18 09:33N 31°45' E 121°05'1010.0
2014-Oct-18 08:33N 31°49' E 120°54'1212.3
2014-Oct-18 07:33N 32°00' E 120°48'1110.9
2014-Oct-18 06:33N 32°01' E 120°35'9 8.8
2014-Oct-18 05:33N 32°02' E 120°25'1211.9
2014-Oct-18 04:33N 31°56' E 120°13'1212.5
2014-Oct-18 03:34N 31°60' E 119°59'2013.8
2014-Oct-18 02:07N 32°18' E 119°50'15 9.4
2014-Oct-18 00:29N 32°14' E 119°33'1010.4
2014-Oct-17 23:31N 32°12' E 119°21'1 1.5
2014-Oct-17 22:33N 32°11' E 119°19'0 0.0
2014-Oct-17 21:33N 32°11' E 119°19'0 0.0
2014-Oct-17 20:27N 32°11' E 119°19'0 0.0
2014-Oct-17 19:30N 32°11' E 119°19'0 0.0
2014-Oct-17 18:24N 32°11' E 119°19'0 0.0
2014-Oct-16 20:30N 32°11' E 119°19'0 0.0
2014-Oct-16 18:15N 32°11' E 119°19'0 0.0
2014-Oct-16 15:33N 32°11' E 119°19'0 0.0
2014-Oct-16 13:15N 32°11' E 119°19'29 2.7
2014-Oct-16 02:29N 32°14' E 119°53'1111.7
2014-Oct-16 01:33N 32°04' E 119°56'1110.8
2014-Oct-16 00:33N 31°57' E 120°06'10 9.7
2014-Oct-15 23:33N 31°57' E 120°17'9 9.0
2014-Oct-15 22:33N 31°60' E 120°27'8 7.5
2014-Oct-15 21:33N 32°00' E 120°36'8 8.0
2014-Oct-15 20:33N 32°01' E 120°45'9 8.9
2014-Oct-15 19:34N 31°55' E 120°53'1 0.8
2014-Oct-15 18:33N 31°54' E 120°54'0 0.0
2014-Oct-15 17:33N 31°54' E 120°54'0 0.0
2014-Oct-15 16:24N 31°54' E 120°54'0 0.0
2014-Oct-15 15:30N 31°54' E 120°54'0 0.4
2014-Oct-15 14:33N 31°53' E 120°53'8 7.7
2014-Oct-15 13:33N 31°47' E 120°58'10 9.7
2014-Oct-15 12:33N 31°42' E 121°08'1110.8
2014-Oct-15 11:33N 31°35' E 121°18'1211.7
2014-Oct-15 10:33N 31°28' E 121°28'9 8.9
2014-Oct-15 09:33N 31°23' E 121°37'10 9.7
2014-Oct-15 08:32N 31°18' E 121°47'321 9.4
2014-Oct-13 22:16N 36°35' E 122°51'912.8
2014-Oct-13 21:33N 36°43' E 122°48'1313.2
2014-Oct-13 20:34N 36°57' E 122°48'1413.7
2014-Oct-13 19:33N 37°10' E 122°48'1413.7
2014-Oct-13 18:31N 37°25' E 122°48'1313.1
2014-Oct-13 17:31N 37°34' E 122°36'1312.9
2014-Oct-13 16:32N 37°42' E 122°23'1712.1
2014-Oct-13 15:08N 37°52' E 122°06'712.0
2014-Oct-13 14:33N 37°56' E 121°59'1211.9
2014-Oct-13 13:32N 38°03' E 121°47'142 9.2
2014-Oct-12 22:09N 39°46' E 119°42'610.3
2014-Oct-12 21:33N 39°52' E 119°39'3 3.2
2014-Oct-12 20:33N 39°54' E 119°36'0 0.0
2014-Oct-12 19:33N 39°54' E 119°36'0 0.0
2014-Oct-12 18:33N 39°54' E 119°36'0 0.0
2014-Oct-12 17:30N 39°54' E 119°36'0 0.0
2014-Oct-12 16:31N 39°54' E 119°36'0 0.0
2014-Oct-12 15:31N 39°54' E 119°36'0 0.0
2014-Oct-12 14:31N 39°54' E 119°36'0 0.0
2014-Oct-12 13:31N 39°54' E 119°36'0 0.0
2014-Oct-12 12:32N 39°54' E 119°36'0 0.0
2014-Oct-12 11:32N 39°54' E 119°36'0 0.0
2014-Oct-12 10:32N 39°54' E 119°36'0 0.0
2014-Oct-12 09:32N 39°54' E 119°36'0 0.0
2014-Oct-12 08:32N 39°54' E 119°36'0 0.0
2014-Oct-12 07:32N 39°54' E 119°36'0 0.0
2014-Oct-12 06:32N 39°54' E 119°36'0 0.0
2014-Oct-12 05:32N 39°54' E 119°36'0 0.0
2014-Oct-12 04:32N 39°54' E 119°36'0 0.0
2014-Oct-12 03:29N 39°54' E 119°36'0 0.0
2014-Oct-12 02:29N 39°54' E 119°36'0 0.0
2014-Oct-12 01:23N 39°54' E 119°36'0 0.0
2014-Oct-12 00:29N 39°54' E 119°36'0 0.0
2014-Oct-11 23:29N 39°54' E 119°36'0 0.0
2014-Oct-11 22:29N 39°54' E 119°36'0 0.0
2014-Oct-11 21:29N 39°54' E 119°36'0 0.0
2014-Oct-11 20:29N 39°54' E 119°36'0 0.0
2014-Oct-11 19:29N 39°54' E 119°36'0 0.0
2014-Oct-11 18:29N 39°54' E 119°36'0 0.0
2014-Oct-11 17:17N 39°54' E 119°36'0 0.0
2014-Oct-11 16:29N 39°54' E 119°36'0 0.0
2014-Oct-11 15:29N 39°54' E 119°36'0 0.0
2014-Oct-11 14:29N 39°54' E 119°36'0 0.0
2014-Oct-11 13:23N 39°54' E 119°36'0 0.0
2014-Oct-11 12:29N 39°54' E 119°36'0 0.0
2014-Oct-11 11:29N 39°54' E 119°36'0 0.0
2014-Oct-11 10:29N 39°54' E 119°36'0 0.0
2014-Oct-11 09:29N 39°54' E 119°36'0 0.0
2014-Oct-11 08:29N 39°54' E 119°36'0 0.0
2014-Oct-11 07:28N 39°54' E 119°36'0 0.0
2014-Oct-11 06:28N 39°54' E 119°36'0 0.0
2014-Oct-11 05:28N 39°54' E 119°36'0 0.0
2014-Oct-11 04:23N 39°54' E 119°36'0 0.0
2014-Oct-11 03:30N 39°54' E 119°36'0 0.0
2014-Oct-11 02:30N 39°54' E 119°36'0 0.0
2014-Oct-11 01:30N 39°54' E 119°36'0 0.0
2014-Oct-11 00:30N 39°54' E 119°36'0 0.0
2014-Oct-10 23:30N 39°54' E 119°36'0 0.0
2014-Oct-10 22:30N 39°54' E 119°36'0 0.0
2014-Oct-10 21:30N 39°54' E 119°36'0 0.0
2014-Oct-10 20:30N 39°54' E 119°36'0 0.0
2014-Oct-10 19:30N 39°54' E 119°36'0 0.0
2014-Oct-10 18:30N 39°54' E 119°36'0 0.0
2014-Oct-10 17:30N 39°54' E 119°36'0 0.0
2014-Oct-10 16:30N 39°54' E 119°36'0 0.0
2014-Oct-10 15:30N 39°54' E 119°36'0 0.0
2014-Oct-10 14:30N 39°54' E 119°36'0 0.0
2014-Oct-10 13:30N 39°54' E 119°36'0 0.0
2014-Oct-10 12:30N 39°54' E 119°36'0 0.0
2014-Oct-10 11:18N 39°54' E 119°36'0 0.0
2014-Oct-10 10:30N 39°54' E 119°36'0 0.0
2014-Oct-10 09:24N 39°54' E 119°36'0 0.0
2014-Oct-10 08:30N 39°54' E 119°36'0 0.0
2014-Oct-10 07:30N 39°54' E 119°36'0 0.0
2014-Oct-10 06:24N 39°54' E 119°36'0 0.0
2014-Oct-10 05:30N 39°54' E 119°36'0 0.0
2014-Oct-10 04:30N 39°54' E 119°36'  

Dump ship's entire track history